sensor_id;sensor_type;location;lat;lon;timestamp;pressure;altitude;pressure_sealevel;temperature;humidity
40838;BME280;29632;49.168;9.848;2022-12-31T00:02:03;96501.59;;;15.33;53.69
40838;BME280;29632;49.168;9.848;2022-12-31T00:04:28;96483.69;;;15.36;53.78
40838;BME280;29632;49.168;9.848;2022-12-31T00:06:54;96492.63;;;15.42;53.39
40838;BME280;29632;49.168;9.848;2022-12-31T00:09:20;96496.88;;;15.43;53.46
40838;BME280;29632;49.168;9.848;2022-12-31T00:11:45;96505.56;;;15.43;53.57
40838;BME280;29632;49.168;9.848;2022-12-31T00:14:11;96505.56;;;15.43;53.72
40838;BME280;29632;49.168;9.848;2022-12-31T00:16:38;96511.44;;;15.45;53.79
40838;BME280;29632;49.168;9.848;2022-12-31T00:19:06;96509.44;;;15.47;53.77
40838;BME280;29632;49.168;9.848;2022-12-31T00:21:32;96517.94;;;15.49;53.84
40838;BME280;29632;49.168;9.848;2022-12-31T00:23:59;96511.91;;;15.49;53.69
40838;BME280;29632;49.168;9.848;2022-12-31T00:26:28;96509.28;;;15.49;53.88
40838;BME280;29632;49.168;9.848;2022-12-31T00:28:55;96516.97;;;15.51;53.90
40838;BME280;29632;49.168;9.848;2022-12-31T00:31:32;96528.09;;;15.53;53.96
40838;BME280;29632;49.168;9.848;2022-12-31T00:33:58;96526.09;;;15.55;53.67
40838;BME280;29632;49.168;9.848;2022-12-31T00:36:32;96526.28;;;15.53;53.89
40838;BME280;29632;49.168;9.848;2022-12-31T00:38:59;96526.66;;;15.50;53.81
40838;BME280;29632;49.168;9.848;2022-12-31T00:41:26;96549.81;;;15.46;54.12
40838;BME280;29632;49.168;9.848;2022-12-31T00:43:52;96527.38;;;15.44;54.09
40838;BME280;29632;49.168;9.848;2022-12-31T00:46:18;96541.28;;;15.44;54.13
40838;BME280;29632;49.168;9.848;2022-12-31T00:48:44;96541.50;;;15.43;54.20
40838;BME280;29632;49.168;9.848;2022-12-31T00:51:13;96548.34;;;15.44;54.24
40838;BME280;29632;49.168;9.848;2022-12-31T00:53:39;96543.75;;;15.46;54.01
40838;BME280;29632;49.168;9.848;2022-12-31T00:56:06;96547.66;;;15.50;54.38
40838;BME280;29632;49.168;9.848;2022-12-31T00:58:32;96549.09;;;15.53;54.35
40838;BME280;29632;49.168;9.848;2022-12-31T01:01:06;96549.91;;;15.53;54.19
40838;BME280;29632;49.168;9.848;2022-12-31T01:03:32;96551.53;;;15.54;54.10
40838;BME280;29632;49.168;9.848;2022-12-31T01:05:57;96548.72;;;15.56;54.43
40838;BME280;29632;49.168;9.848;2022-12-31T01:08:23;96557.22;;;15.58;54.17
40838;BME280;29632;49.168;9.848;2022-12-31T01:10:49;96560.66;;;15.58;54.21
40838;BME280;29632;49.168;9.848;2022-12-31T01:13:33;96548.38;;;15.59;54.42
40838;BME280;29632;49.168;9.848;2022-12-31T01:16:06;96567.56;;;15.59;54.58
40838;BME280;29632;49.168;9.848;2022-12-31T01:18:31;96572.81;;;15.59;54.44
40838;BME280;29632;49.168;9.848;2022-12-31T01:21:00;96570.19;;;15.59;54.18
40838;BME280;29632;49.168;9.848;2022-12-31T01:23:26;96567.03;;;15.64;54.36
40838;BME280;29632;49.168;9.848;2022-12-31T01:25:52;96562.41;;;15.66;54.37
40838;BME280;29632;49.168;9.848;2022-12-31T01:28:17;96572.91;;;15.66;54.29
40838;BME280;29632;49.168;9.848;2022-12-31T01:30:43;96581.41;;;15.68;54.33
40838;BME280;29632;49.168;9.848;2022-12-31T01:33:09;96570.72;;;15.70;54.48
40838;BME280;29632;49.168;9.848;2022-12-31T01:35:34;96570.38;;;15.73;54.31
40838;BME280;29632;49.168;9.848;2022-12-31T01:38:00;96584.16;;;15.75;54.36
40838;BME280;29632;49.168;9.848;2022-12-31T01:40:26;96592.66;;;15.77;54.19
40838;BME280;29632;49.168;9.848;2022-12-31T01:42:58;96596.09;;;15.77;54.42
40838;BME280;29632;49.168;9.848;2022-12-31T01:45:23;96608.25;;;15.78;54.43
40838;BME280;29632;49.168;9.848;2022-12-31T01:47:52;96597.38;;;15.81;54.52
40838;BME280;29632;49.168;9.848;2022-12-31T01:50:26;96597.00;;;15.84;54.30
40838;BME280;29632;49.168;9.848;2022-12-31T01:52:55;96601.72;;;15.89;54.24
40838;BME280;29632;49.168;9.848;2022-12-31T01:55:31;96598.91;;;15.91;54.39
40838;BME280;29632;49.168;9.848;2022-12-31T01:58:10;96617.31;;;15.91;54.39
40838;BME280;29632;49.168;9.848;2022-12-31T02:00:36;96607.59;;;15.91;54.46
40838;BME280;29632;49.168;9.848;2022-12-31T02:03:03;96600.34;;;15.93;54.25
40838;BME280;29632;49.168;9.848;2022-12-31T02:05:35;96601.47;;;15.99;54.43
40838;BME280;29632;49.168;9.848;2022-12-31T02:08:02;96604.53;;;16.02;54.35
40838;BME280;29632;49.168;9.848;2022-12-31T02:10:29;96605.16;;;16.04;54.29
40838;BME280;29632;49.168;9.848;2022-12-31T02:12:55;96613.03;;;16.04;54.63
40838;BME280;29632;49.168;9.848;2022-12-31T02:15:23;96608.59;;;16.05;54.24
40838;BME280;29632;49.168;9.848;2022-12-31T02:20:59;96602.81;;;16.10;54.19
40838;BME280;29632;49.168;9.848;2022-12-31T02:23:58;96609.50;;;16.12;54.45
40838;BME280;29632;49.168;9.848;2022-12-31T02:32:20;96606.50;;;16.15;54.33
40838;BME280;29632;49.168;9.848;2022-12-31T02:34:57;96616.03;;;16.16;54.24
40838;BME280;29632;49.168;9.848;2022-12-31T02:37:26;96621.06;;;16.18;54.18
40838;BME280;29632;49.168;9.848;2022-12-31T02:39:53;96620.88;;;16.19;54.29
40838;BME280;29632;49.168;9.848;2022-12-31T02:42:19;96620.09;;;16.19;54.32
40838;BME280;29632;49.168;9.848;2022-12-31T02:44:45;96607.75;;;16.19;54.07
40838;BME280;29632;49.168;9.848;2022-12-31T02:47:29;96614.66;;;16.20;54.33
40838;BME280;29632;49.168;9.848;2022-12-31T02:58:23;96614.84;;;16.19;54.18
40838;BME280;29632;49.168;9.848;2022-12-31T03:01:10;96619.91;;;16.20;54.26
40838;BME280;29632;49.168;9.848;2022-12-31T03:03:54;96624.16;;;16.21;54.33
40838;BME280;29632;49.168;9.848;2022-12-31T03:06:40;96628.41;;;16.22;54.33
40838;BME280;29632;49.168;9.848;2022-12-31T03:09:06;96620.53;;;16.22;54.29
40838;BME280;29632;49.168;9.848;2022-12-31T03:11:38;96622.97;;;16.24;54.25
40838;BME280;29632;49.168;9.848;2022-12-31T03:14:22;96634.28;;;16.24;54.11
40838;BME280;29632;49.168;9.848;2022-12-31T03:16:47;96628.69;;;16.28;54.10
40838;BME280;29632;49.168;9.848;2022-12-31T03:19:13;96621.44;;;16.30;54.18
40838;BME280;29632;49.168;9.848;2022-12-31T03:21:57;96622.22;;;16.30;54.05
40838;BME280;29632;49.168;9.848;2022-12-31T03:24:41;96618.16;;;16.28;54.07
40838;BME280;29632;49.168;9.848;2022-12-31T03:27:26;96620.34;;;16.24;54.06
40838;BME280;29632;49.168;9.848;2022-12-31T03:29:51;96624.16;;;16.21;54.23
40838;BME280;29632;49.168;9.848;2022-12-31T03:32:17;96630.59;;;16.19;54.38
40838;BME280;29632;49.168;9.848;2022-12-31T03:34:42;96638.31;;;16.20;54.15
40838;BME280;29632;49.168;9.848;2022-12-31T03:37:08;96633.03;;;16.20;54.18
40838;BME280;29632;49.168;9.848;2022-12-31T03:39:34;96635.66;;;16.20;54.28
40838;BME280;29632;49.168;9.848;2022-12-31T03:41:59;96634.47;;;16.23;54.05
40838;BME280;29632;49.168;9.848;2022-12-31T03:44:25;96630.88;;;16.24;54.11
40838;BME280;29632;49.168;9.848;2022-12-31T03:46:50;96639.38;;;16.26;54.35
40838;BME280;29632;49.168;9.848;2022-12-31T03:49:16;96633.75;;;16.29;54.22
40838;BME280;29632;49.168;9.848;2022-12-31T03:51:42;96645.53;;;16.33;53.93
40838;BME280;29632;49.168;9.848;2022-12-31T03:54:07;96634.84;;;16.35;53.90
40838;BME280;29632;49.168;9.848;2022-12-31T03:56:33;96642.53;;;16.36;54.02
40838;BME280;29632;49.168;9.848;2022-12-31T03:58:58;96643.16;;;16.38;53.82
40838;BME280;29632;49.168;9.848;2022-12-31T04:01:24;96640.97;;;16.42;53.68
40838;BME280;29632;49.168;9.848;2022-12-31T04:03:50;96636.00;;;16.47;53.97
40838;BME280;29632;49.168;9.848;2022-12-31T04:06:16;96653.22;;;16.50;53.63
40838;BME280;29632;49.168;9.848;2022-12-31T04:08:41;96646.94;;;16.51;53.61
40838;BME280;29632;49.168;9.848;2022-12-31T04:11:07;96658.75;;;16.55;53.69
40838;BME280;29632;49.168;9.848;2022-12-31T04:13:32;96654.09;;;16.57;53.69
40838;BME280;29632;49.168;9.848;2022-12-31T04:15:58;96656.56;;;16.58;53.72
40838;BME280;29632;49.168;9.848;2022-12-31T04:18:24;96648.84;;;16.57;53.69
40838;BME280;29632;49.168;9.848;2022-12-31T04:20:49;96658.53;;;16.56;53.66
40838;BME280;29632;49.168;9.848;2022-12-31T04:23:15;96648.84;;;16.57;53.76
40838;BME280;29632;49.168;9.848;2022-12-31T04:25:41;96660.97;;;16.58;53.61
40838;BME280;29632;49.168;9.848;2022-12-31T04:28:06;96660.78;;;16.59;53.58
40838;BME280;29632;49.168;9.848;2022-12-31T04:30:32;96653.53;;;16.61;53.58
40838;BME280;29632;49.168;9.848;2022-12-31T04:32:58;96663.06;;;16.63;53.73
40838;BME280;29632;49.168;9.848;2022-12-31T04:35:23;96663.06;;;16.63;53.60
40838;BME280;29632;49.168;9.848;2022-12-31T04:37:49;96662.69;;;16.66;53.66
40838;BME280;29632;49.168;9.848;2022-12-31T04:40:14;96673.03;;;16.67;53.50
40838;BME280;29632;49.168;9.848;2022-12-31T04:42:40;96674.28;;;16.71;53.47
40838;BME280;29632;49.168;9.848;2022-12-31T04:45:06;96678.34;;;16.74;53.58
40838;BME280;29632;49.168;9.848;2022-12-31T04:47:32;96674.56;;;16.76;53.54
40838;BME280;29632;49.168;9.848;2022-12-31T04:49:58;96675.78;;;16.80;53.35
40838;BME280;29632;49.168;9.848;2022-12-31T04:52:23;96672.97;;;16.82;53.16
40838;BME280;29632;49.168;9.848;2022-12-31T04:54:49;96680.34;;;16.87;53.44
40838;BME280;29632;49.168;9.848;2022-12-31T04:57:15;96680.97;;;16.89;53.43
40838;BME280;29632;49.168;9.848;2022-12-31T04:59:40;96680.81;;;16.90;53.43
40838;BME280;29632;49.168;9.848;2022-12-31T05:02:06;96683.88;;;16.94;53.31
40838;BME280;29632;49.168;9.848;2022-12-31T05:04:31;96687.13;;;16.96;53.28
40838;BME280;29632;49.168;9.848;2022-12-31T05:06:57;96686.94;;;16.97;53.42
40838;BME280;29632;49.168;9.848;2022-12-31T05:09:23;96691.66;;;17.02;53.28
40838;BME280;29632;49.168;9.848;2022-12-31T05:11:51;96690.28;;;17.06;53.33
40838;BME280;29632;49.168;9.848;2022-12-31T05:14:17;96677.75;;;17.08;53.53
40838;BME280;29632;49.168;9.848;2022-12-31T05:16:43;96687.09;;;17.11;53.18
40838;BME280;29632;49.168;9.848;2022-12-31T05:19:08;96686.25;;;17.10;53.40
40838;BME280;29632;49.168;9.848;2022-12-31T05:21:34;96686.91;;;17.12;53.27
40838;BME280;29632;49.168;9.848;2022-12-31T05:24:00;96689.31;;;17.14;53.15
40838;BME280;29632;49.168;9.848;2022-12-31T05:26:26;96690.16;;;17.14;53.43
40838;BME280;29632;49.168;9.848;2022-12-31T05:28:51;96696.41;;;17.13;53.30
40838;BME280;29632;49.168;9.848;2022-12-31T05:31:17;96687.34;;;17.16;53.26
40838;BME280;29632;49.168;9.848;2022-12-31T05:33:43;96687.78;;;17.20;53.39
40838;BME280;29632;49.168;9.848;2022-12-31T05:36:08;96694.09;;;17.25;53.23
40838;BME280;29632;49.168;9.848;2022-12-31T05:38:36;96698.16;;;17.28;53.19
40838;BME280;29632;49.168;9.848;2022-12-31T05:41:03;96695.97;;;17.31;53.21
40838;BME280;29632;49.168;9.848;2022-12-31T05:43:30;96695.78;;;17.33;53.15
40838;BME280;29632;49.168;9.848;2022-12-31T05:45:56;96691.78;;;17.37;53.32
40838;BME280;29632;49.168;9.848;2022-12-31T05:48:24;96694.03;;;17.40;53.18
40838;BME280;29632;49.168;9.848;2022-12-31T05:50:49;96700.75;;;17.43;53.33
40838;BME280;29632;49.168;9.848;2022-12-31T05:53:15;96700.56;;;17.44;53.21
40838;BME280;29632;49.168;9.848;2022-12-31T05:55:41;96702.34;;;17.44;53.33
40838;BME280;29632;49.168;9.848;2022-12-31T05:58:06;96696.53;;;17.48;53.34
40838;BME280;29632;49.168;9.848;2022-12-31T06:00:32;96695.78;;;17.54;53.10
40838;BME280;29632;49.168;9.848;2022-12-31T06:02:58;96695.19;;;17.59;53.13
40838;BME280;29632;49.168;9.848;2022-12-31T06:05:23;96706.16;;;17.63;53.01
40838;BME280;29632;49.168;9.848;2022-12-31T06:07:49;96705.16;;;17.64;53.09
40838;BME280;29632;49.168;9.848;2022-12-31T06:10:14;96719.16;;;17.64;52.99
40838;BME280;29632;49.168;9.848;2022-12-31T06:12:40;96718.97;;;17.66;53.16
40838;BME280;29632;49.168;9.848;2022-12-31T06:15:06;96729.50;;;17.66;53.20
40838;BME280;29632;49.168;9.848;2022-12-31T06:17:32;96735.56;;;17.66;53.15
40838;BME280;29632;49.168;9.848;2022-12-31T06:19:58;96715.94;;;17.69;53.02
40838;BME280;29632;49.168;9.848;2022-12-31T06:22:24;96718.59;;;17.69;52.97
40838;BME280;29632;49.168;9.848;2022-12-31T06:24:50;96726.47;;;17.69;53.14
40838;BME280;29632;49.168;9.848;2022-12-31T06:27:15;96718.59;;;17.69;53.26
40838;BME280;29632;49.168;9.848;2022-12-31T06:29:41;96719.38;;;17.69;53.13
40838;BME280;29632;49.168;9.848;2022-12-31T06:32:06;96718.41;;;17.70;53.15
40838;BME280;29632;49.168;9.848;2022-12-31T06:34:32;96724.28;;;17.72;53.05
40838;BME280;29632;49.168;9.848;2022-12-31T06:36:58;96729.38;;;17.74;53.09
40838;BME280;29632;49.168;9.848;2022-12-31T06:39:24;96740.53;;;17.76;53.05
40838;BME280;29632;49.168;9.848;2022-12-31T06:41:50;96734.25;;;17.77;52.99
40838;BME280;29632;49.168;9.848;2022-12-31T06:44:15;96744.78;;;17.77;53.07
40838;BME280;29632;49.168;9.848;2022-12-31T06:46:41;96747.44;;;17.77;53.10
40838;BME280;29632;49.168;9.848;2022-12-31T06:49:07;96745.59;;;17.78;53.13
40838;BME280;29632;49.168;9.848;2022-12-31T06:51:32;96759.16;;;17.74;53.23
40838;BME280;29632;49.168;9.848;2022-12-31T06:53:58;96759.16;;;17.74;53.33
40838;BME280;29632;49.168;9.848;2022-12-31T06:56:25;96755.88;;;17.72;53.17
40838;BME280;29632;49.168;9.848;2022-12-31T06:58:53;96763.78;;;17.72;53.42
40838;BME280;29632;49.168;9.848;2022-12-31T07:04:30;96765.22;;;17.75;53.25
40838;BME280;29632;49.168;9.848;2022-12-31T07:07:21;96773.56;;;17.79;53.18
40838;BME280;29632;49.168;9.848;2022-12-31T07:18:35;96775.75;;;17.75;53.19
40838;BME280;29632;49.168;9.848;2022-12-31T07:21:02;96776.78;;;17.74;53.30
40838;BME280;29632;49.168;9.848;2022-12-31T07:23:28;96775.13;;;17.73;53.34
40838;BME280;29632;49.168;9.848;2022-12-31T07:26:02;96778.56;;;17.73;53.22
40838;BME280;29632;49.168;9.848;2022-12-31T07:31:31;96790.13;;;17.72;53.40
40838;BME280;29632;49.168;9.848;2022-12-31T07:34:03;96783.03;;;17.73;53.38
40838;BME280;29632;49.168;9.848;2022-12-31T07:36:36;96797.00;;;17.73;53.39
40838;BME280;29632;49.168;9.848;2022-12-31T07:39:20;96798.84;;;17.73;53.35
40838;BME280;29632;49.168;9.848;2022-12-31T07:42:35;96792.41;;;17.76;53.21
40838;BME280;29632;49.168;9.848;2022-12-31T07:47:25;96793.25;;;17.83;52.91
40838;BME280;29632;49.168;9.848;2022-12-31T07:49:51;96794.88;;;17.84;53.09
40838;BME280;29632;49.168;9.848;2022-12-31T07:52:17;96790.91;;;17.88;53.12
40838;BME280;29632;49.168;9.848;2022-12-31T07:54:43;96790.31;;;17.92;53.01
40838;BME280;29632;49.168;9.848;2022-12-31T07:57:11;96788.75;;;17.98;53.09
40838;BME280;29632;49.168;9.848;2022-12-31T08:00:00;96791.19;;;18.00;52.95
40838;BME280;29632;49.168;9.848;2022-12-31T08:05:25;96798.97;;;18.08;52.75
40838;BME280;29632;49.168;9.848;2022-12-31T08:13:20;96823.72;;;18.14;52.74
40838;BME280;29632;49.168;9.848;2022-12-31T08:15:46;96814.03;;;18.14;52.78
40838;BME280;29632;49.168;9.848;2022-12-31T08:18:12;96817.28;;;18.16;53.00
40838;BME280;29632;49.168;9.848;2022-12-31T08:21:21;96813.00;;;18.15;52.53
40838;BME280;29632;49.168;9.848;2022-12-31T08:24:22;96821.53;;;18.17;52.73
40838;BME280;29632;49.168;9.848;2022-12-31T08:29:26;96826.63;;;18.19;52.56
40838;BME280;29632;49.168;9.848;2022-12-31T08:34:54;96818.72;;;18.19;52.72
40838;BME280;29632;49.168;9.848;2022-12-31T08:37:39;96833.72;;;18.18;52.88
40838;BME280;29632;49.168;9.848;2022-12-31T08:40:27;96830.88;;;18.20;52.69
40838;BME280;29632;49.168;9.848;2022-12-31T08:43:11;96827.03;;;18.22;52.74
40838;BME280;29632;49.168;9.848;2022-12-31T08:45:46;96835.72;;;18.44;52.32
40838;BME280;29632;49.168;9.848;2022-12-31T08:48:30;96837.72;;;18.71;52.30
40838;BME280;29632;49.168;9.848;2022-12-31T08:50:57;96830.59;;;18.93;51.54
40838;BME280;29632;49.168;9.848;2022-12-31T08:53:23;96840.34;;;18.99;51.61
40838;BME280;29632;49.168;9.848;2022-12-31T08:55:52;96845.66;;;19.05;51.63
40838;BME280;29632;49.168;9.848;2022-12-31T09:01:03;96849.53;;;19.10;51.61
40838;BME280;29632;49.168;9.848;2022-12-31T09:08:50;96860.91;;;19.10;51.82
40838;BME280;29632;49.168;9.848;2022-12-31T09:11:34;96855.44;;;19.18;51.72
40838;BME280;29632;49.168;9.848;2022-12-31T09:14:11;96858.97;;;19.26;51.53
40838;BME280;29632;49.168;9.848;2022-12-31T09:16:56;96864.25;;;19.26;51.54
40838;BME280;29632;49.168;9.848;2022-12-31T09:19:24;96864.84;;;19.34;51.63
40838;BME280;29632;49.168;9.848;2022-12-31T09:21:50;96862.44;;;19.39;51.45
40838;BME280;29632;49.168;9.848;2022-12-31T09:24:16;96868.38;;;19.41;51.48
40838;BME280;29632;49.168;9.848;2022-12-31T09:30:03;96885.81;;;19.42;51.36
40838;BME280;29632;49.168;9.848;2022-12-31T09:35:53;96873.03;;;19.46;51.41
40838;BME280;29632;49.168;9.848;2022-12-31T09:41:13;96877.56;;;19.59;51.34
40838;BME280;29632;49.168;9.848;2022-12-31T09:51:46;96879.06;;;19.75;51.19
40838;BME280;29632;49.168;9.848;2022-12-31T09:59:50;96878.19;;;19.68;51.44
40838;BME280;29632;49.168;9.848;2022-12-31T10:02:42;96883.25;;;19.69;51.26
40838;BME280;29632;49.168;9.848;2022-12-31T10:10:39;96884.50;;;19.73;51.31
40838;BME280;29632;49.168;9.848;2022-12-31T10:13:16;96887.59;;;19.77;51.25
40838;BME280;29632;49.168;9.848;2022-12-31T10:16:00;96892.69;;;19.78;51.32
40838;BME280;29632;49.168;9.848;2022-12-31T10:18:35;96890.66;;;19.80;51.24
40838;BME280;29632;49.168;9.848;2022-12-31T10:29:43;96885.63;;;19.99;51.13
40838;BME280;29632;49.168;9.848;2022-12-31T11:18:51;96870.69;;;21.11;49.70
40838;BME280;29632;49.168;9.848;2022-12-31T11:22:03;96871.91;;;21.16;49.62
40838;BME280;29632;49.168;9.848;2022-12-31T11:33:40;96854.31;;;21.35;49.75
40838;BME280;29632;49.168;9.848;2022-12-31T11:36:18;96846.72;;;21.45;49.55
40838;BME280;29632;49.168;9.848;2022-12-31T11:41:31;96842.03;;;21.54;49.52
40838;BME280;29632;49.168;9.848;2022-12-31T11:47:07;96837.88;;;21.64;49.28
40838;BME280;29632;49.168;9.848;2022-12-31T11:55:31;96860.13;;;21.63;49.16
40838;BME280;29632;49.168;9.848;2022-12-31T11:58:07;96845.66;;;21.59;49.41
40838;BME280;29632;49.168;9.848;2022-12-31T12:00:35;96852.00;;;21.58;49.43
40838;BME280;29632;49.168;9.848;2022-12-31T12:03:04;96849.16;;;21.60;49.23
40838;BME280;29632;49.168;9.848;2022-12-31T12:05:31;96848.91;;;21.61;49.36
40838;BME280;29632;49.168;9.848;2022-12-31T12:07:58;96844.06;;;21.58;49.32
40838;BME280;29632;49.168;9.848;2022-12-31T12:10:43;96857.69;;;21.62;49.39
40838;BME280;29632;49.168;9.848;2022-12-31T12:13:20;96853.41;;;21.61;49.03
40838;BME280;29632;49.168;9.848;2022-12-31T12:15:51;96851.78;;;21.60;49.15
40838;BME280;29632;49.168;9.848;2022-12-31T12:18:44;96856.44;;;21.64;49.12
40838;BME280;29632;49.168;9.848;2022-12-31T12:21:21;96852.13;;;21.70;48.88
40838;BME280;29632;49.168;9.848;2022-12-31T12:24:03;96853.50;;;21.79;49.12
40838;BME280;29632;49.168;9.848;2022-12-31T12:26:33;96852.44;;;21.87;48.87
40838;BME280;29632;49.168;9.848;2022-12-31T12:29:11;96850.34;;;21.96;48.59
40838;BME280;29632;49.168;9.848;2022-12-31T12:31:37;96846.00;;;22.01;48.75
40838;BME280;29632;49.168;9.848;2022-12-31T12:34:03;96857.38;;;22.09;48.58
40838;BME280;29632;49.168;9.848;2022-12-31T12:36:30;96847.59;;;22.09;48.47
40838;BME280;29632;49.168;9.848;2022-12-31T12:39:04;96852.88;;;22.16;48.50
40838;BME280;29632;49.168;9.848;2022-12-31T12:41:31;96846.47;;;22.23;48.46
40838;BME280;29632;49.168;9.848;2022-12-31T12:44:12;96843.00;;;22.30;48.23
40838;BME280;29632;49.168;9.848;2022-12-31T12:46:46;96849.47;;;22.34;48.35
40838;BME280;29632;49.168;9.848;2022-12-31T12:49:21;96847.78;;;22.39;48.42
40838;BME280;29632;49.168;9.848;2022-12-31T12:59:52;96837.75;;;22.67;47.84
40838;BME280;29632;49.168;9.848;2022-12-31T13:05:20;96831.91;;;22.76;47.98
40838;BME280;29632;49.168;9.848;2022-12-31T13:10:54;96820.44;;;22.83;47.78
40838;BME280;29632;49.168;9.848;2022-12-31T13:16:10;96827.28;;;22.72;48.00
40838;BME280;29632;49.168;9.848;2022-12-31T13:18:42;96821.25;;;22.65;48.14
40838;BME280;29632;49.168;9.848;2022-12-31T13:24:00;96816.22;;;22.56;48.09
40838;BME280;29632;49.168;9.848;2022-12-31T13:26:43;96818.19;;;22.61;47.87
40838;BME280;29632;49.168;9.848;2022-12-31T13:29:19;96806.56;;;22.62;48.13
40838;BME280;29632;49.168;9.848;2022-12-31T13:31:46;96806.69;;;22.67;47.83
40838;BME280;29632;49.168;9.848;2022-12-31T13:34:20;96811.00;;;22.68;47.87
40838;BME280;29632;49.168;9.848;2022-12-31T13:36:47;96809.22;;;22.62;47.80
40838;BME280;29632;49.168;9.848;2022-12-31T13:39:28;96809.09;;;22.50;48.03
40838;BME280;29632;49.168;9.848;2022-12-31T13:42:23;96808.38;;;22.43;48.06
40838;BME280;29632;49.168;9.848;2022-12-31T13:44:55;96810.81;;;22.44;47.90
40838;BME280;29632;49.168;9.848;2022-12-31T13:47:29;96811.19;;;22.48;48.11
40838;BME280;29632;49.168;9.848;2022-12-31T13:49:58;96808.09;;;22.51;47.89
40838;BME280;29632;49.168;9.848;2022-12-31T13:55:54;96822.16;;;22.52;47.63
40838;BME280;29632;49.168;9.848;2022-12-31T14:01:36;96815.84;;;22.53;47.63
40838;BME280;29632;49.168;9.848;2022-12-31T14:04:20;96825.19;;;22.55;47.50
40838;BME280;29632;49.168;9.848;2022-12-31T14:06:59;96831.16;;;22.51;47.34
40838;BME280;29632;49.168;9.848;2022-12-31T14:09:29;96831.81;;;22.46;47.63
40838;BME280;29632;49.168;9.848;2022-12-31T14:14:36;96831.06;;;22.39;47.37
40838;BME280;29632;49.168;9.848;2022-12-31T14:17:27;96834.72;;;22.38;47.44
40838;BME280;29632;49.168;9.848;2022-12-31T14:25:20;96830.25;;;22.38;47.31
40838;BME280;29632;49.168;9.848;2022-12-31T14:27:48;96827.06;;;22.30;47.34
40838;BME280;29632;49.168;9.848;2022-12-31T14:30:19;96826.63;;;22.26;47.40
40838;BME280;29632;49.168;9.848;2022-12-31T14:33:43;96817.28;;;22.23;47.39
40838;BME280;29632;49.168;9.848;2022-12-31T14:38:55;96821.09;;;22.09;47.26
40838;BME280;29632;49.168;9.848;2022-12-31T14:44:41;96817.72;;;21.95;47.41
40838;BME280;29632;49.168;9.848;2022-12-31T14:50:11;96811.81;;;21.93;47.37
40838;BME280;29632;49.168;9.848;2022-12-31T14:55:29;96814.69;;;21.92;47.07
40838;BME280;29632;49.168;9.848;2022-12-31T14:58:00;96819.41;;;21.90;47.20
40838;BME280;29632;49.168;9.848;2022-12-31T15:00:28;96821.41;;;21.87;47.15
40838;BME280;29632;49.168;9.848;2022-12-31T15:05:35;96818.78;;;21.87;46.92
40838;BME280;29632;49.168;9.848;2022-12-31T15:08:13;96831.00;;;21.88;46.83
40838;BME280;29632;49.168;9.848;2022-12-31T15:24:25;96849.41;;;21.83;46.59
40838;BME280;29632;49.168;9.848;2022-12-31T15:26:54;96840.06;;;21.81;46.55
40838;BME280;29632;49.168;9.848;2022-12-31T15:29:28;96851.44;;;21.81;46.54
40838;BME280;29632;49.168;9.848;2022-12-31T15:31:55;96845.09;;;21.82;46.46
40838;BME280;29632;49.168;9.848;2022-12-31T15:34:27;96847.16;;;21.80;46.44
40838;BME280;29632;49.168;9.848;2022-12-31T15:36:57;96848.22;;;21.79;46.42
40838;BME280;29632;49.168;9.848;2022-12-31T15:39:43;96852.50;;;21.74;46.48
40838;BME280;29632;49.168;9.848;2022-12-31T15:42:43;96852.34;;;21.68;46.44
40838;BME280;29632;49.168;9.848;2022-12-31T15:45:15;96843.78;;;21.66;46.44
40838;BME280;29632;49.168;9.848;2022-12-31T15:47:45;96847.47;;;21.65;46.51
40838;BME280;29632;49.168;9.848;2022-12-31T15:50:18;96852.97;;;21.64;46.33
40838;BME280;29632;49.168;9.848;2022-12-31T15:57:56;96842.41;;;21.57;46.34
40838;BME280;29632;49.168;9.848;2022-12-31T16:00:24;96845.09;;;21.50;46.15
40838;BME280;29632;49.168;9.848;2022-12-31T16:02:53;96845.31;;;21.49;46.48
40838;BME280;29632;49.168;9.848;2022-12-31T16:05:22;96841.84;;;21.48;46.31
40838;BME280;29632;49.168;9.848;2022-12-31T16:07:52;96849.38;;;21.45;46.28
40838;BME280;29632;49.168;9.848;2022-12-31T16:10:22;96856.53;;;21.38;46.41
40838;BME280;29632;49.168;9.848;2022-12-31T16:12:48;96848.63;;;21.31;46.40
40838;BME280;29632;49.168;9.848;2022-12-31T16:15:20;96855.16;;;21.28;46.33
40838;BME280;29632;49.168;9.848;2022-12-31T16:17:55;96856.38;;;21.26;46.36
40838;BME280;29632;49.168;9.848;2022-12-31T16:20:24;96860.06;;;21.25;46.48
40838;BME280;29632;49.168;9.848;2022-12-31T16:22:52;96868.81;;;21.25;46.35
40838;BME280;29632;49.168;9.848;2022-12-31T16:25:20;96875.97;;;21.25;46.34
40838;BME280;29632;49.168;9.848;2022-12-31T16:27:50;96875.34;;;21.23;46.37
40838;BME280;29632;49.168;9.848;2022-12-31T16:32:46;96864.34;;;21.19;46.35
40838;BME280;29632;49.168;9.848;2022-12-31T16:35:24;96861.09;;;21.17;46.21
40838;BME280;29632;49.168;9.848;2022-12-31T16:38:10;96864.38;;;21.12;46.37
40838;BME280;29632;49.168;9.848;2022-12-31T16:40:37;96863.75;;;21.10;46.14
40838;BME280;29632;49.168;9.848;2022-12-31T16:43:03;96858.69;;;21.09;46.19
40838;BME280;29632;49.168;9.848;2022-12-31T16:45:33;96858.06;;;21.07;46.32
40838;BME280;29632;49.168;9.848;2022-12-31T16:48:17;96859.91;;;21.06;46.29
40838;BME280;29632;49.168;9.848;2022-12-31T16:50:44;96855.63;;;21.05;46.28
40838;BME280;29632;49.168;9.848;2022-12-31T16:53:10;96844.84;;;21.07;46.21
40838;BME280;29632;49.168;9.848;2022-12-31T16:55:37;96854.41;;;21.08;46.16
40838;BME280;29632;49.168;9.848;2022-12-31T16:58:14;96848.72;;;21.04;46.16
40838;BME280;29632;49.168;9.848;2022-12-31T17:00:42;96859.13;;;20.99;45.99
40838;BME280;29632;49.168;9.848;2022-12-31T17:03:16;96852.84;;;20.93;46.07
40838;BME280;29632;49.168;9.848;2022-12-31T17:06:16;96858.94;;;20.87;46.14
40838;BME280;29632;49.168;9.848;2022-12-31T17:11:30;96858.97;;;20.81;46.31
40838;BME280;29632;49.168;9.848;2022-12-31T17:19:39;96877.47;;;20.81;46.11